Time;durP1;ratioP1;P1;durP2;ratioP2;P2;SDS_P1;SDS_P2;PMS_P1;PMS_P2;Temp;Humidity;BMP_temperature;BMP_pressure;BME280_temperature;BME280_humidity;BME280_pressure;Samples;Min_cycle;Max_cycle;Signal;HPM_P1;HPM_P2
2023/03/28 00:02:07;;;;;;;1.98;1.38;;;;;;;;;;5031354;28;20376;-60
2023/03/28 00:04:37;;;;;;;2.40;1.23;;;;;;;;;;5031982;28;20042;-60
2023/03/28 00:07:04;;;;;;;4.43;1.58;;;;;;;;;;5031717;28;20025;-61
2023/03/28 00:09:31;;;;;;;1.88;1.20;;;;;;;;;;5029624;28;20025;-60
2023/03/28 00:11:58;;;;;;;1.77;1.30;;;;;;;;;;5007948;28;20046;-60
2023/03/28 00:14:25;;;;;;;2.65;1.33;;;;;;;;;;4967573;28;20108;-60
2023/03/28 00:16:51;;;;;;;3.05;1.27;;;;;;;;;;5026616;28;20026;-60
2023/03/28 00:19:19;;;;;;;2.67;1.60;;;;;;;;;;5027892;28;20028;-60
2023/03/28 00:21:47;;;;;;;5.00;2.25;;;;;;;;;;5031858;28;20498;-60
2023/03/28 00:24:15;;;;;;;17.80;1.27;;;;;;;;;;4949205;28;20135;-60
2023/03/28 00:26:43;;;;;;;1.98;1.58;;;;;;;;;;4931912;28;20036;-60
2023/03/28 00:29:14;;;;;;;2.70;1.48;;;;;;;;;;4931780;28;20038;-60
2023/03/28 00:31:41;;;;;;;2.38;1.23;;;;;;;;;;4930189;28;20062;-60
2023/03/28 00:34:08;;;;;;;4.13;1.55;;;;;;;;;;4999302;28;20082;-60
2023/03/28 00:36:37;;;;;;;3.60;1.70;;;;;;;;;;5025198;28;20033;-60
2023/03/28 00:39:05;;;;;;;3.08;1.05;;;;;;;;;;5026177;28;20048;-60
2023/03/28 00:41:38;;;;;;;2.80;1.65;;;;;;;;;;5026813;28;20033;-60
2023/03/28 00:44:23;;;;;;;4.05;1.65;;;;;;;;;;5033062;28;20398;-60
2023/03/28 00:46:50;;;;;;;30.13;2.17;;;;;;;;;;4915990;28;20424;-60
2023/03/28 00:49:20;;;;;;;2.72;1.60;;;;;;;;;;4916116;28;20070;-60
2023/03/28 00:51:49;;;;;;;3.15;1.10;;;;;;;;;;4915775;28;20042;-60
2023/03/28 00:54:18;;;;;;;6.00;1.10;;;;;;;;;;4914057;28;20031;-60
2023/03/28 00:56:47;;;;;;;2.10;1.42;;;;;;;;;;4917642;28;20513;-59
2023/03/28 00:59:17;;;;;;;3.13;1.17;;;;;;;;;;4929459;28;20035;-60
2023/03/28 01:01:45;;;;;;;2.00;1.15;;;;;;;;;;4929613;28;20114;-60
2023/03/28 01:04:12;;;;;;;9.98;1.48;;;;;;;;;;4930316;28;20482;-60
2023/03/28 01:06:41;;;;;;;1.33;1.05;;;;;;;;;;4934897;28;20024;-59
2023/03/28 01:09:08;;;;;;;6.72;1.75;;;;;;;;;;4934870;28;20114;-60
2023/03/28 01:11:36;;;;;;;1.95;1.23;;;;;;;;;;4934726;28;20385;-60
2023/03/28 01:14:05;;;;;;;3.33;1.52;;;;;;;;;;4934729;29;20032;-59
2023/03/28 01:16:32;;;;;;;2.83;1.67;;;;;;;;;;4933435;29;20585;-60
2023/03/28 01:19:03;;;;;;;2.65;1.48;;;;;;;;;;4969487;28;20024;-60
2023/03/28 01:21:33;;;;;;;5.95;1.60;;;;;;;;;;4929009;28;20027;-60
2023/03/28 01:24:22;;;;;;;2.03;1.20;;;;;;;;;;4929290;28;20034;-59
2023/03/28 01:26:57;;;;;;;3.90;2.08;;;;;;;;;;4930438;28;20016;-59
2023/03/28 01:29:42;;;;;;;4.43;1.80;;;;;;;;;;4935129;28;20027;-59
2023/03/28 01:32:32;;;;;;;4.07;1.97;;;;;;;;;;4933958;28;20038;-60
2023/03/28 01:35:08;;;;;;;5.63;1.77;;;;;;;;;;4915932;28;20402;-59
2023/03/28 01:37:47;;;;;;;3.00;1.63;;;;;;;;;;4934168;28;20036;-60
2023/03/28 01:40:20;;;;;;;2.60;1.33;;;;;;;;;;4930584;28;20040;-60
2023/03/28 01:42:46;;;;;;;3.47;1.43;;;;;;;;;;4929049;28;20024;-59
2023/03/28 01:45:18;;;;;;;2.17;1.33;;;;;;;;;;4928811;28;20054;-59
2023/03/28 01:48:05;;;;;;;2.63;1.70;;;;;;;;;;4929063;28;20027;-60
2023/03/28 01:50:43;;;;;;;2.60;1.63;;;;;;;;;;4932611;28;20039;-59
2023/03/28 01:53:16;;;;;;;2.27;1.57;;;;;;;;;;4934632;28;20058;-59
2023/03/28 01:55:43;;;;;;;2.07;1.30;;;;;;;;;;4933572;28;20050;-59
2023/03/28 01:58:12;;;;;;;4.63;1.63;;;;;;;;;;4933994;28;20031;-59
2023/03/28 02:00:49;;;;;;;4.70;1.67;;;;;;;;;;4933838;28;20031;-59
2023/03/28 02:03:21;;;;;;;3.17;1.60;;;;;;;;;;4930414;28;20039;-59
2023/03/28 02:05:49;;;;;;;1.60;1.20;;;;;;;;;;4929323;28;20450;-59
2023/03/28 02:08:19;;;;;;;3.37;1.80;;;;;;;;;;4935005;28;20492;-59
2023/03/28 02:10:46;;;;;;;3.83;1.40;;;;;;;;;;4928606;28;20032;-59
2023/03/28 02:13:18;;;;;;;2.50;1.57;;;;;;;;;;4930324;28;20466;-59
2023/03/28 02:15:46;;;;;;;2.93;1.47;;;;;;;;;;4933801;29;20479;-59
2023/03/28 02:18:22;;;;;;;1.80;1.50;;;;;;;;;;4940471;28;20377;-59
2023/03/28 02:20:58;;;;;;;10.63;2.00;;;;;;;;;;4958384;28;20090;-59
2023/03/28 02:23:35;;;;;;;2.50;1.50;;;;;;;;;;4933725;28;20110;-59
2023/03/28 02:26:01;;;;;;;1.53;1.03;;;;;;;;;;4930532;28;20036;-59
2023/03/28 02:28:30;;;;;;;7.10;1.37;;;;;;;;;;4928894;28;20060;-60
2023/03/28 02:30:57;;;;;;;2.03;1.40;;;;;;;;;;4927618;28;20046;-60
2023/03/28 02:33:41;;;;;;;3.67;1.73;;;;;;;;;;4928334;28;20086;-59
2023/03/28 02:36:16;;;;;;;2.27;1.20;;;;;;;;;;4931065;28;20059;-59
2023/03/28 02:38:48;;;;;;;1.80;0.97;;;;;;;;;;4933385;28;20036;-59
2023/03/28 02:41:28;;;;;;;3.10;1.83;;;;;;;;;;4969678;28;20060;-59
2023/03/28 02:44:15;;;;;;;1.80;1.40;;;;;;;;;;4914380;28;20032;-59
2023/03/28 02:46:51;;;;;;;2.67;1.27;;;;;;;;;;4933654;28;20391;-59
2023/03/28 02:49:27;;;;;;;2.50;1.50;;;;;;;;;;5003406;28;20427;-59
2023/03/28 02:52:08;;;;;;;4.87;1.23;;;;;;;;;;5027898;28;20041;-59
2023/03/28 02:54:42;;;;;;;14.27;1.60;;;;;;;;;;4983113;28;20022;-59
2023/03/28 02:57:41;;;;;;;4.67;1.57;;;;;;;;;;5027823;28;20112;-60
2023/03/28 03:00:15;;;;;;;2.73;1.50;;;;;;;;;;5010749;28;20037;-58
2023/03/28 03:02:43;;;;;;;6.93;1.57;;;;;;;;;;5018784;28;20076;-59
2023/03/28 03:05:10;;;;;;;2.23;1.17;;;;;;;;;;4933034;28;20808;-59
2023/03/28 03:07:37;;;;;;;3.97;1.50;;;;;;;;;;4931356;28;20026;-59
2023/03/28 03:10:07;;;;;;;2.47;1.77;;;;;;;;;;4931776;28;20050;-59
2023/03/28 03:12:34;;;;;;;2.93;1.47;;;;;;;;;;4927171;28;20032;-59
2023/03/28 03:15:02;;;;;;;2.40;1.53;;;;;;;;;;4978765;28;20368;-59
2023/03/28 03:17:29;;;;;;;2.10;1.30;;;;;;;;;;5027591;28;20027;-59
2023/03/28 03:19:56;;;;;;;1.87;1.40;;;;;;;;;;5027729;28;20083;-59
2023/03/28 03:22:23;;;;;;;4.40;1.80;;;;;;;;;;5032668;28;20021;-58
2023/03/28 03:24:50;;;;;;;3.17;1.57;;;;;;;;;;4957389;28;20501;-59
2023/03/28 03:27:20;;;;;;;2.53;1.53;;;;;;;;;;4932821;28;20035;-59
2023/03/28 03:29:47;;;;;;;2.53;1.27;;;;;;;;;;4932717;28;20024;-59
2023/03/28 03:32:14;;;;;;;2.00;1.33;;;;;;;;;;4931874;28;20039;-59
2023/03/28 03:34:41;;;;;;;4.20;1.57;;;;;;;;;;4927376;28;20119;-58
2023/03/28 03:37:08;;;;;;;2.97;1.83;;;;;;;;;;4926754;28;20031;-59
2023/03/28 03:39:35;;;;;;;2.13;1.47;;;;;;;;;;4927181;28;20027;-59
2023/03/28 03:42:02;;;;;;;7.20;1.67;;;;;;;;;;4926681;28;20028;-59
2023/03/28 03:44:29;;;;;;;2.30;1.37;;;;;;;;;;4932419;28;20032;-59
2023/03/28 03:46:56;;;;;;;1.73;1.03;;;;;;;;;;4932250;28;20043;-59
2023/03/28 03:49:23;;;;;;;1.97;1.17;;;;;;;;;;4932481;28;20115;-59
2023/03/28 03:51:50;;;;;;;6.63;2.23;;;;;;;;;;4932340;28;20032;-59
2023/03/28 03:54:17;;;;;;;2.07;1.60;;;;;;;;;;4931011;28;20475;-59
2023/03/28 03:56:43;;;;;;;2.07;1.57;;;;;;;;;;4927158;28;20050;-59
2023/03/28 03:59:10;;;;;;;4.73;1.80;;;;;;;;;;4926813;28;20059;-59
2023/03/28 04:01:38;;;;;;;3.63;1.90;;;;;;;;;;4926861;28;20031;-59
2023/03/28 04:04:08;;;;;;;9.20;1.60;;;;;;;;;;4926996;28;20032;-59
2023/03/28 04:06:37;;;;;;;1.30;1.03;;;;;;;;;;4930185;28;20106;-59
2023/03/28 04:09:04;;;;;;;2.50;1.77;;;;;;;;;;4932202;28;20031;-59
2023/03/28 04:11:31;;;;;;;4.40;1.77;;;;;;;;;;4932094;28;20031;-58
2023/03/28 04:13:58;;;;;;;2.53;1.60;;;;;;;;;;4932043;29;20085;-58
2023/03/28 04:16:24;;;;;;;4.10;1.73;;;;;;;;;;4932714;28;20031;-58
2023/03/28 04:18:51;;;;;;;1.70;1.40;;;;;;;;;;4928599;28;20501;-59
2023/03/28 04:21:26;;;;;;;2.27;1.30;;;;;;;;;;4930127;28;20027;-59
2023/03/28 04:23:53;;;;;;;1.73;1.33;;;;;;;;;;4930199;28;20482;-58
2023/03/28 04:26:24;;;;;;;3.17;1.67;;;;;;;;;;4930004;28;20391;-58
2023/03/28 04:28:54;;;;;;;2.43;1.43;;;;;;;;;;4933647;28;20444;-59
2023/03/28 04:31:21;;;;;;;3.07;1.73;;;;;;;;;;4934768;28;20093;-59
2023/03/28 04:33:49;;;;;;;2.30;1.27;;;;;;;;;;4934972;28;20494;-59
2023/03/28 04:36:17;;;;;;;1.10;1.00;;;;;;;;;;4935231;28;20028;-58
2023/03/28 04:38:48;;;;;;;1.80;1.23;;;;;;;;;;4935236;28;20043;-58
2023/03/28 04:41:15;;;;;;;1.70;1.30;;;;;;;;;;4931107;28;20036;-59
2023/03/28 04:43:43;;;;;;;2.87;1.53;;;;;;;;;;4929693;28;20031;-58
2023/03/28 04:46:10;;;;;;;3.37;1.30;;;;;;;;;;4929791;28;20048;-58
2023/03/28 04:48:37;;;;;;;1.63;1.37;;;;;;;;;;4929252;28;20470;-60
2023/03/28 04:51:03;;;;;;;4.07;2.03;;;;;;;;;;4933006;28;20032;-58
2023/03/28 04:53:30;;;;;;;3.80;1.63;;;;;;;;;;4935046;28;20051;-58
2023/03/28 04:55:58;;;;;;;2.57;1.50;;;;;;;;;;4934720;28;20036;-59
2023/03/28 04:58:25;;;;;;;10.40;1.13;;;;;;;;;;4934896;28;20054;-58
2023/03/28 05:00:53;;;;;;;2.30;1.17;;;;;;;;;;4934747;28;20127;-58
2023/03/28 05:03:23;;;;;;;5.80;1.37;;;;;;;;;;4931637;28;20034;-57
2023/03/28 05:05:51;;;;;;;6.20;1.33;;;;;;;;;;4929259;28;20035;-56
2023/03/28 05:08:19;;;;;;;4.33;1.83;;;;;;;;;;4929231;28;20036;-56
2023/03/28 05:10:47;;;;;;;3.53;1.40;;;;;;;;;;4929498;28;20093;-56
2023/03/28 05:13:14;;;;;;;15.27;1.90;;;;;;;;;;4932049;28;20074;-56
2023/03/28 05:15:41;;;;;;;2.07;1.30;;;;;;;;;;4934781;28;20032;-56
2023/03/28 05:18:08;;;;;;;5.33;1.27;;;;;;;;;;4934814;29;20050;-56
2023/03/28 05:20:35;;;;;;;1.53;1.30;;;;;;;;;;4935141;28;20352;-56
2023/03/28 05:23:02;;;;;;;4.13;1.60;;;;;;;;;;4934209;28;20024;-56
2023/03/28 05:25:29;;;;;;;3.43;1.57;;;;;;;;;;4932038;28;21468;-56
2023/03/28 05:27:56;;;;;;;3.23;1.53;;;;;;;;;;4928783;28;20035;-56
2023/03/28 05:30:22;;;;;;;2.30;1.50;;;;;;;;;;4928145;28;20038;-56
2023/03/28 05:32:49;;;;;;;1.57;1.23;;;;;;;;;;4929249;28;20024;-57
2023/03/28 05:35:16;;;;;;;1.70;1.20;;;;;;;;;;4930721;28;20436;-56
2023/03/28 05:37:43;;;;;;;2.87;1.30;;;;;;;;;;4934368;28;20386;-56
2023/03/28 05:40:10;;;;;;;3.30;1.37;;;;;;;;;;4934142;28;20034;-56
2023/03/28 05:42:37;;;;;;;1.97;1.57;;;;;;;;;;4934465;28;20024;-56
2023/03/28 05:45:05;;;;;;;1.37;1.20;;;;;;;;;;4933978;28;20034;-56
2023/03/28 05:47:31;;;;;;;2.33;1.30;;;;;;;;;;4932124;28;20027;-56
2023/03/28 05:49:58;;;;;;;2.10;1.27;;;;;;;;;;4928960;28;20031;-56
2023/03/28 05:52:25;;;;;;;2.87;1.57;;;;;;;;;;4928820;28;20397;-56
2023/03/28 05:54:52;;;;;;;7.97;1.20;;;;;;;;;;4929077;28;20035;-56
2023/03/28 05:57:19;;;;;;;6.10;1.50;;;;;;;;;;4929295;28;20035;-56
2023/03/28 05:59:47;;;;;;;3.07;1.80;;;;;;;;;;4934119;28;20035;-56
2023/03/28 06:02:14;;;;;;;1.37;0.93;;;;;;;;;;4934069;28;20036;-56
2023/03/28 06:04:42;;;;;;;2.20;1.47;;;;;;;;;;4934145;28;20031;-56
2023/03/28 06:07:09;;;;;;;1.80;1.13;;;;;;;;;;4932935;28;20497;-56
2023/03/28 06:09:36;;;;;;;2.67;1.33;;;;;;;;;;4932091;28;20556;-56
2023/03/28 06:12:03;;;;;;;1.30;0.90;;;;;;;;;;4928440;28;20036;-56
2023/03/28 06:14:30;;;;;;;1.07;0.90;;;;;;;;;;4928376;29;20478;-56
2023/03/28 06:16:57;;;;;;;2.10;1.30;;;;;;;;;;4928717;29;20394;-56
2023/03/28 06:19:25;;;;;;;6.43;2.13;;;;;;;;;;4928779;29;20054;-56
2023/03/28 06:21:51;;;;;;;1.80;1.47;;;;;;;;;;4934506;28;20028;-56
2023/03/28 06:24:18;;;;;;;2.70;1.70;;;;;;;;;;4933749;28;20047;-56
2023/03/28 06:26:45;;;;;;;3.00;1.30;;;;;;;;;;4933644;28;20019;-57
2023/03/28 06:29:12;;;;;;;4.53;1.83;;;;;;;;;;4933683;28;20552;-56
2023/03/28 06:31:38;;;;;;;4.67;1.03;;;;;;;;;;4932709;28;20394;-59
2023/03/28 06:34:05;;;;;;;1.20;0.80;;;;;;;;;;4928304;28;20032;-56
2023/03/28 06:36:32;;;;;;;2.87;1.50;;;;;;;;;;4928426;28;20082;-56
2023/03/28 06:39:00;;;;;;;1.67;1.07;;;;;;;;;;4928324;28;20498;-57
2023/03/28 06:41:27;;;;;;;2.63;1.27;;;;;;;;;;4928001;28;20024;-57
2023/03/28 06:43:53;;;;;;;1.93;1.47;;;;;;;;;;4933234;28;20050;-56
2023/03/28 06:46:20;;;;;;;1.60;1.10;;;;;;;;;;4933341;28;20110;-56
2023/03/28 06:48:50;;;;;;;1.93;1.43;;;;;;;;;;4933307;28;20086;-57
2023/03/28 06:51:16;;;;;;;2.60;1.60;;;;;;;;;;4933194;28;20094;-56
2023/03/28 06:53:43;;;;;;;4.03;1.33;;;;;;;;;;4933342;28;20036;-57
2023/03/28 06:56:10;;;;;;;3.30;2.00;;;;;;;;;;4928210;28;20020;-57
2023/03/28 06:58:37;;;;;;;2.43;0.97;;;;;;;;;;4927763;28;20478;-57
2023/03/28 07:01:05;;;;;;;1.57;1.23;;;;;;;;;;4928184;28;20465;-57
2023/03/28 07:03:31;;;;;;;3.03;1.80;;;;;;;;;;4928077;28;20107;-58
2023/03/28 07:05:58;;;;;;;5.03;1.67;;;;;;;;;;4932106;28;20020;-56
2023/03/28 07:08:25;;;;;;;5.67;1.93;;;;;;;;;;4932662;28;20110;-57
2023/03/28 07:10:52;;;;;;;2.37;1.70;;;;;;;;;;4932826;28;20038;-57
2023/03/28 07:13:18;;;;;;;1.90;1.27;;;;;;;;;;4932538;29;20084;-57
2023/03/28 07:15:45;;;;;;;2.67;1.77;;;;;;;;;;4933074;29;20028;-57
2023/03/28 07:18:12;;;;;;;1.37;1.23;;;;;;;;;;4928715;29;20031;-56
2023/03/28 07:20:41;;;;;;;2.00;1.43;;;;;;;;;;4927919;29;20102;-57
2023/03/28 07:23:08;;;;;;;2.83;1.33;;;;;;;;;;4928184;28;20057;-57
2023/03/28 07:25:34;;;;;;;1.87;1.30;;;;;;;;;;4927456;28;20039;-57
2023/03/28 07:28:01;;;;;;;2.60;1.57;;;;;;;;;;4931103;28;20038;-56
2023/03/28 07:30:28;;;;;;;2.07;1.63;;;;;;;;;;4932836;28;20047;-57
2023/03/28 07:32:54;;;;;;;3.93;1.50;;;;;;;;;;4932761;28;20035;-57
2023/03/28 07:35:21;;;;;;;1.80;1.47;;;;;;;;;;4932663;28;20043;-56
2023/03/28 07:37:48;;;;;;;4.37;1.30;;;;;;;;;;4932532;28;20046;-56
2023/03/28 07:40:15;;;;;;;4.50;2.07;;;;;;;;;;4929032;28;20086;-57
2023/03/28 07:42:42;;;;;;;3.10;1.40;;;;;;;;;;4927491;28;20032;-57
2023/03/28 07:45:09;;;;;;;1.63;1.20;;;;;;;;;;4927150;28;20028;-57
2023/03/28 07:47:35;;;;;;;1.63;1.30;;;;;;;;;;4927281;28;20035;-56
2023/03/28 07:50:03;;;;;;;20.07;1.77;;;;;;;;;;4930011;28;20028;-57
2023/03/28 07:52:30;;;;;;;2.40;1.80;;;;;;;;;;4932106;28;20562;-57
2023/03/28 07:54:56;;;;;;;2.23;1.43;;;;;;;;;;4932053;28;20024;-57
2023/03/28 07:57:23;;;;;;;3.30;1.80;;;;;;;;;;4932321;28;20031;-57
2023/03/28 07:59:50;;;;;;;7.07;2.77;;;;;;;;;;4932110;28;20114;-56
2023/03/28 08:02:16;;;;;;;3.07;2.20;;;;;;;;;;4929108;28;20036;-57
2023/03/28 08:04:43;;;;;;;1.60;1.37;;;;;;;;;;4926994;28;20083;-58
2023/03/28 08:07:11;;;;;;;2.80;1.77;;;;;;;;;;4926991;28;20028;-57
2023/03/28 08:09:38;;;;;;;2.10;1.53;;;;;;;;;;4927138;28;20112;-56
2023/03/28 08:12:04;;;;;;;2.20;1.60;;;;;;;;;;4928627;28;20086;-56
2023/03/28 08:14:31;;;;;;;4.43;2.77;;;;;;;;;;4932763;28;20031;-56
2023/03/28 08:16:58;;;;;;;2.30;1.70;;;;;;;;;;4932091;28;20035;-56
2023/03/28 08:19:24;;;;;;;3.23;1.77;;;;;;;;;;4932000;28;20028;-56
2023/03/28 08:21:54;;;;;;;1.60;1.33;;;;;;;;;;4932244;28;20103;-56
2023/03/28 08:24:21;;;;;;;2.57;1.50;;;;;;;;;;4930052;28;20042;-56
2023/03/28 08:26:48;;;;;;;2.77;1.70;;;;;;;;;;4926767;28;20032;-57
2023/03/28 08:29:15;;;;;;;5.07;2.43;;;;;;;;;;4926940;28;20059;-57
2023/03/28 08:31:41;;;;;;;4.17;1.77;;;;;;;;;;4926827;28;20051;-56
2023/03/28 08:34:08;;;;;;;2.87;2.17;;;;;;;;;;4928011;28;20081;-56
2023/03/28 08:36:35;;;;;;;1.77;1.37;;;;;;;;;;4931924;28;20020;-56
2023/03/28 08:39:04;;;;;;;3.60;1.67;;;;;;;;;;4931120;28;20058;-57
2023/03/28 08:41:50;;;;;;;3.13;1.70;;;;;;;;;;4931888;28;20462;-56
2023/03/28 08:44:32;;;;;;;3.97;1.90;;;;;;;;;;4931770;28;20031;-56
2023/03/28 08:47:19;;;;;;;7.43;1.30;;;;;;;;;;4928883;28;20024;-57
2023/03/28 08:49:48;;;;;;;3.43;1.37;;;;;;;;;;4926302;28;20096;-57
2023/03/28 08:52:17;;;;;;;3.57;2.10;;;;;;;;;;4926461;28;20073;-56
2023/03/28 08:55:05;;;;;;;3.20;1.90;;;;;;;;;;4926415;28;20084;-56
2023/03/28 08:57:33;;;;;;;4.57;2.13;;;;;;;;;;4929897;28;20027;-57
2023/03/28 09:00:16;;;;;;;5.23;2.13;;;;;;;;;;4931839;28;20438;-56
2023/03/28 09:02:43;;;;;;;3.07;2.13;;;;;;;;;;4931717;28;20538;-56
2023/03/28 09:05:14;;;;;;;1.60;1.33;;;;;;;;;;4933139;28;20471;-56
2023/03/28 09:07:50;;;;;;;1.93;1.50;;;;;;;;;;4935084;28;20055;-56
2023/03/28 09:10:23;;;;;;;23.60;1.80;;;;;;;;;;4930189;28;20114;-56
2023/03/28 09:12:53;;;;;;;3.37;1.87;;;;;;;;;;4929950;28;20028;-56
2023/03/28 09:15:19;;;;;;;3.17;2.10;;;;;;;;;;4929641;28;20475;-56
2023/03/28 09:17:58;;;;;;;2.20;1.67;;;;;;;;;;4929458;28;20082;-56
2023/03/28 09:20:33;;;;;;;0.87;0.83;;;;;;;;;;4934232;28;20454;-56
2023/03/28 09:23:38;;;;;;;3.93;2.57;;;;;;;;;;4934455;28;20027;-56
2023/03/28 09:26:13;;;;;;;2.17;1.80;;;;;;;;;;4993369;28;20089;-56
2023/03/28 09:28:52;;;;;;;1.98;1.48;;;;;;;;;;4993799;28;20041;-57
2023/03/28 09:31:19;;;;;;;2.03;1.40;;;;;;;;;;4946552;28;20056;-57
2023/03/28 09:33:48;;;;;;;3.40;2.20;;;;;;;;;;4929495;28;20402;-56
2023/03/28 09:36:18;;;;;;;3.07;1.73;;;;;;;;;;4928718;28;20028;-57
2023/03/28 09:38:46;;;;;;;1.60;1.23;;;;;;;;;;4929326;28;20036;-56
2023/03/28 09:41:19;;;;;;;3.27;2.07;;;;;;;;;;4930169;28;20028;-56
2023/03/28 09:43:54;;;;;;;1.80;1.50;;;;;;;;;;4934322;28;20078;-56
2023/03/28 09:46:21;;;;;;;;;;;;;;;;;;4934665;28;20034;-57
2023/03/28 09:48:47;;;;;;;2.23;1.67;;;;;;;;;;4934202;28;20029;-56
2023/03/28 09:51:17;;;;;;;4.20;2.00;;;;;;;;;;4934060;28;20425;-56
2023/03/28 09:53:47;;;;;;;1.80;1.20;;;;;;;;;;4932247;28;20107;-57
2023/03/28 09:56:17;;;;;;;5.90;2.07;;;;;;;;;;4929108;28;20051;-56
2023/03/28 09:58:49;;;;;;;6.27;2.27;;;;;;;;;;4928820;28;20028;-56
2023/03/28 10:01:26;;;;;;;4.23;1.67;;;;;;;;;;4928891;28;20090;-57
2023/03/28 10:03:54;;;;;;;3.20;2.27;;;;;;;;;;4930737;28;20101;-56
2023/03/28 10:06:27;;;;;;;2.53;1.80;;;;;;;;;;4934052;28;20024;-56
2023/03/28 10:09:20;;;;;;;2.57;1.67;;;;;;;;;;4934055;28;20375;-56
2023/03/28 10:12:02;;;;;;;2.97;1.97;;;;;;;;;;4935286;28;20402;-56
2023/03/28 10:14:36;;;;;;;3.00;2.17;;;;;;;;;;4933914;29;20046;-56
2023/03/28 10:17:22;;;;;;;2.07;1.67;;;;;;;;;;4929292;29;20025;-56
2023/03/28 10:19:50;;;;;;;4.47;2.10;;;;;;;;;;4921822;29;20083;-57
2023/03/28 10:22:24;;;;;;;6.77;2.43;;;;;;;;;;4929131;28;20050;-56
2023/03/28 10:24:51;;;;;;;2.40;2.00;;;;;;;;;;4928697;28;20474;-56
2023/03/28 10:27:24;;;;;;;2.50;2.00;;;;;;;;;;4933079;28;20024;-56
2023/03/28 10:29:55;;;;;;;14.87;2.43;;;;;;;;;;4933729;28;20031;-56
2023/03/28 10:32:26;;;;;;;9.50;2.47;;;;;;;;;;4933359;28;20035;-56
2023/03/28 10:35:00;;;;;;;3.03;2.30;;;;;;;;;;4933818;28;20058;-56
2023/03/28 10:37:28;;;;;;;5.67;2.60;;;;;;;;;;4933617;28;20027;-56
2023/03/28 10:40:04;;;;;;;3.00;2.10;;;;;;;;;;4928453;28;20028;-56
2023/03/28 10:42:44;;;;;;;6.47;2.83;;;;;;;;;;4927789;28;20077;-56
2023/03/28 10:45:19;;;;;;;6.63;3.43;;;;;;;;;;4927983;28;20133;-56
2023/03/28 10:47:46;;;;;;;3.43;2.70;;;;;;;;;;4928670;28;20352;-56
2023/03/28 10:50:21;;;;;;;3.40;2.20;;;;;;;;;;4933228;28;20115;-57
2023/03/28 10:52:54;;;;;;;3.80;2.67;;;;;;;;;;4933136;28;20035;-56
2023/03/28 10:55:26;;;;;;;3.17;2.37;;;;;;;;;;4933569;28;20035;-56
2023/03/28 10:58:15;;;;;;;4.43;2.80;;;;;;;;;;4933356;28;20154;-56
2023/03/28 11:01:05;;;;;;;2.83;2.03;;;;;;;;;;4931384;28;20031;-56
2023/03/28 11:04:01;;;;;;;2.03;1.53;;;;;;;;;;4934399;28;20036;-56
2023/03/28 11:06:46;;;;;;;3.93;2.20;;;;;;;;;;4939564;28;20398;-56
2023/03/28 11:09:23;;;;;;;3.22;2.22;;;;;;;;;;4928018;28;20439;-57
2023/03/28 11:12:07;;;;;;;4.20;1.97;;;;;;;;;;4932124;28;20031;-57
2023/03/28 11:14:33;;;;;;;2.50;1.90;;;;;;;;;;4932901;28;20060;-56
2023/03/28 11:17:04;;;;;;;4.43;2.03;;;;;;;;;;4932625;28;20077;-56
2023/03/28 11:19:34;;;;;;;3.37;2.57;;;;;;;;;;4932970;29;20426;-56
2023/03/28 11:22:07;;;;;;;2.60;2.07;;;;;;;;;;4933065;28;20020;-56
2023/03/28 11:24:33;;;;;;;3.90;1.97;;;;;;;;;;4927237;28;20030;-57
2023/03/28 11:27:06;;;;;;;3.50;2.23;;;;;;;;;;4927665;28;20104;-56
2023/03/28 11:29:40;;;;;;;2.27;1.87;;;;;;;;;;4926386;28;20482;-56
2023/03/28 11:32:25;;;;;;;5.47;2.07;;;;;;;;;;4927548;28;20556;-56
2023/03/28 11:34:57;;;;;;;2.17;1.73;;;;;;;;;;4932829;28;20032;-57
2023/03/28 11:37:30;;;;;;;3.73;2.33;;;;;;;;;;4932428;28;20081;-56
2023/03/28 11:40:21;;;;;;;2.17;1.60;;;;;;;;;;4932666;28;20379;-56
2023/03/28 11:42:51;;;;;;;7.23;2.57;;;;;;;;;;4939268;28;20035;-56
2023/03/28 11:45:26;;;;;;;3.90;2.53;;;;;;;;;;4930460;28;20063;-56
2023/03/28 11:48:04;;;;;;;3.00;2.30;;;;;;;;;;4927335;29;20094;-56
2023/03/28 11:50:51;;;;;;;15.80;2.50;;;;;;;;;;4927282;28;20043;-56
2023/03/28 11:53:32;;;;;;;2.90;2.27;;;;;;;;;;4955999;28;20031;-56
2023/03/28 11:56:23;;;;;;;3.07;2.37;;;;;;;;;;5029159;28;20033;-57
2023/03/28 11:58:53;;;;;;;3.83;2.57;;;;;;;;;;5032157;28;20072;-56
2023/03/28 12:01:26;;;;;;;2.47;2.00;;;;;;;;;;5032265;28;20017;-56
2023/03/28 12:03:57;;;;;;;2.07;1.80;;;;;;;;;;5020127;28;20025;-56
2023/03/28 12:06:27;;;;;;;2.20;1.80;;;;;;;;;;4932591;28;20398;-56
2023/03/28 12:09:02;;;;;;;5.70;2.53;;;;;;;;;;4927727;28;20027;-57
2023/03/28 12:11:39;;;;;;;2.70;2.13;;;;;;;;;;4927137;28;20120;-56
2023/03/28 12:14:11;;;;;;;5.23;3.10;;;;;;;;;;4927127;28;20077;-57
2023/03/28 12:16:40;;;;;;;2.87;2.00;;;;;;;;;;4927109;28;20139;-56
2023/03/28 12:19:10;;;;;;;3.13;2.37;;;;;;;;;;4931449;28;20020;-56
2023/03/28 12:21:44;;;;;;;4.20;2.50;;;;;;;;;;4932131;28;20103;-56
2023/03/28 12:24:19;;;;;;;3.72;2.30;;;;;;;;;;4932016;28;20039;-56
2023/03/28 12:26:45;;;;;;;2.75;1.80;;;;;;;;;;4932020;28;20024;-56
2023/03/28 12:29:30;;;;;;;6.70;2.50;;;;;;;;;;4932021;28;20511;-56
2023/03/28 12:32:00;;;;;;;6.60;2.47;;;;;;;;;;4926498;28;20081;-56
2023/03/28 12:34:32;;;;;;;4.53;2.47;;;;;;;;;;4926706;28;20366;-56
2023/03/28 12:37:10;;;;;;;4.83;2.73;;;;;;;;;;4926347;28;20039;-56
2023/03/28 12:39:49;;;;;;;3.30;1.80;;;;;;;;;;4928427;28;20110;-56
2023/03/28 12:42:20;;;;;;;4.00;2.20;;;;;;;;;;4935106;28;20024;-56
2023/03/28 12:45:08;;;;;;;3.77;2.57;;;;;;;;;;4934894;28;20455;-56
2023/03/28 12:47:38;;;;;;;3.87;2.63;;;;;;;;;;4935131;28;20061;-56
2023/03/28 12:50:14;;;;;;;4.23;3.17;;;;;;;;;;4934980;28;20051;-56
2023/03/28 12:52:45;;;;;;;4.10;3.07;;;;;;;;;;4932364;28;20032;-56
2023/03/28 12:55:24;;;;;;;12.83;2.90;;;;;;;;;;4929578;28;20106;-56
2023/03/28 12:57:51;;;;;;;23.97;2.90;;;;;;;;;;4929943;28;20036;-57
2023/03/28 13:00:21;;;;;;;6.53;2.63;;;;;;;;;;4929735;28;20028;-56
2023/03/28 13:03:12;;;;;;;10.00;2.97;;;;;;;;;;4932360;28;20099;-56
2023/03/28 13:05:44;;;;;;;5.73;3.90;;;;;;;;;;4934541;28;20038;-56
2023/03/28 13:08:22;;;;;;;3.77;2.47;;;;;;;;;;4935073;28;20063;-56
2023/03/28 13:11:07;;;;;;;4.00;3.37;;;;;;;;;;4934497;28;20123;-56
2023/03/28 13:13:57;;;;;;;4.68;3.15;;;;;;;;;;4934365;29;20032;-56
2023/03/28 13:16:25;;;;;;;4.07;2.73;;;;;;;;;;4910984;29;20364;-57
2023/03/28 13:19:19;;;;;;;7.60;2.47;;;;;;;;;;4929719;29;20444;-56
2023/03/28 13:21:46;;;;;;;6.93;3.20;;;;;;;;;;4928430;28;20521;-56
2023/03/28 13:24:25;;;;;;;11.53;3.30;;;;;;;;;;4929996;28;20538;-56
2023/03/28 13:26:54;;;;;;;4.83;2.97;;;;;;;;;;4934592;28;20374;-56
2023/03/28 13:29:21;;;;;;;7.53;2.83;;;;;;;;;;4934427;28;20077;-56
2023/03/28 13:31:48;;;;;;;6.43;2.43;;;;;;;;;;4933828;28;20043;-56
2023/03/28 13:34:22;;;;;;;4.67;2.87;;;;;;;;;;4934429;28;20032;-57
2023/03/28 13:36:55;;;;;;;8.37;3.13;;;;;;;;;;4932786;28;20024;-57
2023/03/28 13:39:26;;;;;;;2.83;2.43;;;;;;;;;;4929158;28;20046;-57
2023/03/28 13:41:54;;;;;;;5.00;2.63;;;;;;;;;;4928812;28;20047;-57
2023/03/28 13:44:23;;;;;;;4.30;2.90;;;;;;;;;;4928935;28;20032;-57
2023/03/28 13:46:50;;;;;;;5.30;2.03;;;;;;;;;;4929996;28;20031;-58
2023/03/28 13:49:41;;;;;;;1.87;1.33;;;;;;;;;;4933916;28;20114;-57
2023/03/28 13:52:13;;;;;;;3.97;2.23;;;;;;;;;;4914468;28;20574;-57
2023/03/28 13:54:39;;;;;;;5.97;2.60;;;;;;;;;;4914788;28;20162;-57
2023/03/28 13:57:07;;;;;;;3.30;2.20;;;;;;;;;;4915056;28;20067;-57
2023/03/28 13:59:38;;;;;;;2.87;1.87;;;;;;;;;;4927926;28;20027;-58
2023/03/28 14:02:17;;;;;;;9.93;3.93;;;;;;;;;;4928530;28;20032;-58
2023/03/28 14:05:03;;;;;;;4.23;2.00;;;;;;;;;;4928642;28;20035;-58
2023/03/28 14:07:30;;;;;;;7.27;3.60;;;;;;;;;;4928491;28;20530;-58
2023/03/28 14:09:57;;;;;;;4.70;2.53;;;;;;;;;;4931815;28;20023;-58
2023/03/28 14:12:26;;;;;;;3.00;2.00;;;;;;;;;;4933872;28;20031;-58
2023/03/28 14:14:54;;;;;;;5.73;3.90;;;;;;;;;;4933560;29;20505;-57
2023/03/28 14:17:25;;;;;;;10.93;3.67;;;;;;;;;;4934379;28;20383;-58
2023/03/28 14:19:56;;;;;;;5.77;3.17;;;;;;;;;;4933375;28;20038;-58
2023/03/28 14:22:27;;;;;;;10.20;4.17;;;;;;;;;;4930056;28;20099;-58
2023/03/28 14:24:57;;;;;;;4.97;3.27;;;;;;;;;;4928560;28;20024;-59
2023/03/28 14:27:37;;;;;;;7.60;3.63;;;;;;;;;;4928493;28;20087;-57
2023/03/28 14:30:16;;;;;;;5.00;3.63;;;;;;;;;;5027441;28;20110;-58
2023/03/28 14:32:53;;;;;;;4.00;2.93;;;;;;;;;;5032472;28;20026;-58
2023/03/28 14:35:22;;;;;;;3.10;2.47;;;;;;;;;;4945606;28;20027;-58
2023/03/28 14:37:53;;;;;;;13.13;3.93;;;;;;;;;;4933546;28;20036;-57
2023/03/28 14:40:22;;;;;;;6.37;2.43;;;;;;;;;;4933201;28;20059;-58
2023/03/28 14:42:50;;;;;;;4.47;2.87;;;;;;;;;;4933430;28;20023;-58
2023/03/28 14:45:17;;;;;;;3.10;2.17;;;;;;;;;;4927820;28;20047;-58
2023/03/28 14:47:45;;;;;;;10.63;4.20;;;;;;;;;;4928465;28;20443;-57
2023/03/28 14:50:16;;;;;;;6.37;2.63;;;;;;;;;;4928213;28;20533;-58
2023/03/28 14:52:43;;;;;;;5.07;2.77;;;;;;;;;;4928223;28;20043;-58
2023/03/28 14:55:25;;;;;;;10.00;3.20;;;;;;;;;;4931161;28;20105;-58
2023/03/28 14:57:53;;;;;;;5.30;3.23;;;;;;;;;;4995815;28;20020;-58
2023/03/28 15:00:24;;;;;;;6.13;3.07;;;;;;;;;;4933143;28;20028;-58
2023/03/28 15:02:52;;;;;;;6.50;2.57;;;;;;;;;;4933018;28;20163;-58
2023/03/28 15:05:20;;;;;;;5.47;2.73;;;;;;;;;;4932868;28;20479;-58
2023/03/28 15:07:56;;;;;;;8.37;2.80;;;;;;;;;;4927364;28;20467;-58